Abbotsford, Wisconsin
Current Conditions -  °F | °C
As of 10:35 PM on Saturday 22 Nov 2014 (Local Time) from KMDZ Reporting Station
Moderate Fog Moderate Fog  
Wind Chill: 29°   Ceiling: 200
Heat Index: 35°   Visibility: 0.5mi
Dew Point: 35°   Wind: 7mph
Humidity: 100%   Direction: 120°ESE
Pressure: 29.65"   Gusts: NA
Location:  44.95°N, 90.32°W
Report Text: KMDZ 230435Z AUTO 12006KT 1/2SM FG OVC002 02/02 A2965 RMK AO2 T00150015
Loading
Personal Weather Stations






























Interactive Weather Map New forecast layout! Learn more

10-Day Weather Forecast

Advertisements
Track Severe Weather on mobile